Terminal Aerodrome Forecast
Issued by NWS

Home | Current Version | Previous Version | Graphics & Text | Print | Product List | Glossary On
Versions: 1 2 3 4 5 6 7 8 9 10 11 12 13 14 15 16 17 18 19 20
738
FTUS43 KFGF 262339
TAFBJI
TAF
KBJI 262339Z 2700/2724 30017KT P6SM BKN050
     FM270800 29015KT P6SM BKN030
     FM271000 30015KT P6SM BKN015
     FM271100 30015KT P6SM BKN020
     FM271200 30015KT P6SM BKN010
     FM272200 33011KT P6SM BKN015=

USA.gov is the U.S. government's official web portal to all federal, state and local government web resources and services.